createdAt,value
2018-08-18T00:00:25.362Z,4.50
2018-08-18T00:02:54.919Z,4.47
2018-08-18T00:05:24.210Z,4.70
2018-08-18T00:07:53.635Z,5.17
2018-08-18T00:10:23.722Z,3.07
2018-08-18T00:12:53.187Z,5.30
2018-08-18T00:15:22.488Z,4.50
2018-08-18T00:17:52.151Z,4.60
2018-08-18T00:20:23.657Z,4.73
2018-08-18T00:22:52.795Z,3.50
2018-08-18T00:25:22.188Z,6.43
2018-08-18T00:27:51.688Z,3.43
2018-08-18T00:30:28.175Z,6.93
2018-08-18T00:32:57.762Z,8.90
2018-08-18T00:35:27.335Z,4.73
2018-08-18T00:40:54.414Z,3.37
2018-08-18T00:43:23.551Z,4.17
2018-08-18T00:45:52.838Z,5.30
2018-08-18T00:48:23.026Z,5.83
2018-08-18T00:50:52.273Z,5.90
2018-08-18T00:53:21.587Z,5.47
2018-08-18T00:55:51.535Z,6.00
2018-08-18T00:58:27.197Z,5.03
2018-08-18T01:01:02.698Z,8.77
2018-08-18T01:03:35.745Z,6.53
2018-08-18T01:06:20.027Z,6.33
2018-08-18T01:08:52.450Z,8.17
2018-08-18T01:11:21.674Z,9.10
2018-08-18T01:13:50.826Z,5.30
2018-08-18T01:16:19.931Z,7.70
2018-08-18T01:18:49.278Z,5.33
2018-08-18T01:21:18.599Z,6.67
2018-08-18T01:23:47.666Z,5.97
2018-08-18T01:26:16.853Z,8.17
2018-08-18T01:28:45.941Z,8.10
2018-08-18T01:31:19.255Z,6.00
2018-08-18T01:33:48.462Z,7.70
2018-08-18T01:36:17.764Z,4.37
2018-08-18T01:38:46.918Z,4.20
2018-08-18T01:41:24.369Z,5.87
2018-08-18T01:44:08.525Z,5.47
2018-08-18T01:46:38.019Z,4.73
2018-08-18T01:49:22.886Z,6.87
2018-08-18T01:51:52.187Z,7.67
2018-08-18T01:54:21.425Z,5.70
2018-08-18T01:56:53.426Z,5.00
2018-08-18T01:59:23.161Z,5.50
2018-08-18T02:01:52.338Z,6.13
2018-08-18T02:04:21.495Z,7.97
2018-08-18T02:06:50.626Z,8.07
2018-08-18T02:09:19.915Z,8.07
2018-08-18T02:11:53.220Z,5.87
2018-08-18T02:14:22.713Z,6.67
2018-08-18T02:16:57.015Z,7.93
2018-08-18T02:19:26.105Z,8.23
2018-08-18T02:21:55.252Z,7.33
2018-08-18T02:24:24.463Z,9.43
2018-08-18T02:26:53.908Z,8.77
2018-08-18T02:29:23.467Z,14.20
2018-08-18T02:31:53.317Z,11.47
2018-08-18T02:34:22.481Z,12.73
2018-08-18T02:36:51.661Z,6.73
2018-08-18T02:39:20.838Z,10.83
2018-08-18T02:42:05.317Z,9.23
2018-08-18T02:44:34.733Z,13.23
2018-08-18T02:47:03.845Z,11.83
2018-08-18T02:49:37.124Z,11.67
2018-08-18T02:52:11.188Z,9.83
2018-08-18T02:54:41.142Z,9.77
2018-08-18T02:57:10.454Z,10.93
2018-08-18T02:59:39.503Z,14.87
2018-08-18T03:02:09.061Z,13.27
2018-08-18T03:04:43.955Z,8.63
2018-08-18T03:07:13.036Z,10.90
2018-08-18T03:09:42.530Z,11.53
2018-08-18T03:12:12.162Z,13.43
2018-08-18T03:14:42.321Z,13.20
2018-08-18T03:17:12.912Z,14.90
2018-08-18T03:19:44.945Z,14.80
2018-08-18T03:22:14.235Z,11.43
2018-08-18T03:24:43.607Z,16.07
2018-08-18T03:27:12.810Z,12.80
2018-08-18T03:29:47.613Z,11.87
2018-08-18T03:32:17.258Z,15.70
2018-08-18T03:34:46.777Z,17.63
2018-08-18T03:37:29.548Z,15.63
2018-08-18T03:39:58.867Z,19.30
2018-08-18T03:42:33.616Z,10.73
2018-08-18T03:45:05.288Z,15.43
2018-08-18T03:47:34.656Z,16.23
2018-08-18T03:50:04.668Z,14.20
2018-08-18T03:52:34.037Z,15.83
2018-08-18T03:55:03.211Z,13.73
2018-08-18T03:57:46.443Z,14.47
2018-08-18T04:00:17.000Z,16.50
2018-08-18T04:02:46.971Z,18.77
2018-08-18T04:05:16.516Z,10.00
2018-08-18T04:07:46.659Z,12.43
2018-08-18T04:10:18.214Z,19.33
2018-08-18T04:12:48.169Z,18.00
2018-08-18T04:15:18.126Z,15.93
2018-08-18T04:17:47.890Z,13.13
2018-08-18T04:20:17.496Z,17.70
2018-08-18T04:22:46.862Z,14.60
2018-08-18T04:25:16.436Z,19.57
2018-08-18T04:27:48.248Z,12.23
2018-08-18T04:30:19.969Z,18.00
2018-08-18T04:32:56.575Z,17.43
2018-08-18T04:35:27.394Z,17.80
2018-08-18T04:37:57.532Z,23.77
2018-08-18T04:40:27.070Z,10.10
2018-08-18T04:42:56.939Z,15.17
2018-08-18T04:45:26.172Z,12.07
2018-08-18T04:47:55.593Z,18.17
2018-08-18T04:50:24.827Z,20.30
2018-08-18T04:52:55.085Z,14.80
2018-08-18T04:55:24.296Z,14.43
2018-08-18T04:57:53.546Z,22.20
2018-08-18T05:00:23.351Z,12.87
2018-08-18T05:02:57.351Z,15.23
2018-08-18T05:05:28.213Z,18.40
2018-08-18T05:07:59.624Z,13.63
2018-08-18T05:10:29.110Z,22.00
2018-08-18T05:12:58.752Z,17.17
2018-08-18T05:15:28.290Z,14.07
2018-08-18T05:17:58.109Z,22.73
2018-08-18T05:20:28.535Z,15.57
2018-08-18T05:23:13.256Z,16.00
2018-08-18T05:25:42.727Z,16.57
2018-08-18T05:28:12.070Z,17.30
2018-08-18T05:30:41.617Z,11.30
2018-08-18T05:33:10.868Z,12.50
2018-08-18T05:35:40.018Z,9.17
2018-08-18T05:38:09.129Z,13.97
2018-08-18T05:40:38.320Z,14.17
2018-08-18T05:43:07.648Z,11.93
2018-08-18T05:45:36.918Z,15.73
2018-08-18T05:48:06.013Z,15.30
2018-08-18T05:50:35.072Z,15.80
2018-08-18T05:53:19.755Z,16.77
2018-08-18T05:55:49.920Z,13.97
2018-08-18T05:58:19.073Z,13.80
2018-08-18T06:00:49.262Z,11.73
2018-08-18T06:03:20.331Z,12.63
2018-08-18T06:05:49.687Z,11.90
2018-08-18T06:08:18.859Z,9.57
2018-08-18T06:10:48.059Z,10.43
2018-08-18T06:13:21.244Z,11.47
2018-08-18T06:16:07.345Z,12.90
2018-08-18T06:18:38.227Z,11.37
2018-08-18T06:21:07.801Z,12.10
2018-08-18T06:23:38.235Z,8.50
2018-08-18T06:26:07.969Z,8.93
2018-08-18T06:28:37.440Z,8.47
2018-08-18T06:31:06.705Z,8.60
2018-08-18T06:33:35.981Z,6.23
2018-08-18T06:36:05.230Z,5.60
2018-08-18T06:38:34.383Z,7.40
2018-08-18T06:41:03.927Z,6.17
2018-08-18T06:43:34.270Z,5.53
2018-08-18T06:46:03.769Z,7.47
2018-08-18T06:48:35.030Z,5.30
2018-08-18T06:51:04.563Z,6.63
2018-08-18T06:53:39.404Z,9.90
2018-08-18T06:56:08.827Z,5.80
2018-08-18T06:58:37.896Z,5.50
2018-08-18T07:01:07.561Z,7.40
2018-08-18T07:03:38.450Z,5.87
2018-08-18T07:06:10.069Z,7.93
2018-08-18T07:08:44.696Z,7.77
2018-08-18T07:11:13.819Z,5.30
2018-08-18T07:13:43.477Z,5.03
2018-08-18T07:16:12.670Z,7.13
2018-08-18T07:18:41.854Z,6.93
2018-08-18T07:21:11.049Z,6.77
2018-08-18T07:23:40.277Z,7.80
2018-08-18T07:26:09.465Z,7.37
2018-08-18T07:28:38.753Z,5.73
2018-08-18T07:31:07.874Z,8.03
2018-08-18T07:33:37.187Z,4.77
2018-08-18T07:36:06.352Z,4.90
2018-08-18T07:38:35.553Z,6.50
2018-08-18T07:41:04.972Z,6.83
2018-08-18T07:43:34.960Z,5.33
2018-08-18T07:46:05.597Z,5.33
2018-08-18T07:48:34.796Z,5.13
2018-08-18T07:51:04.011Z,5.67
2018-08-18T07:53:33.102Z,6.77
2018-08-18T07:56:02.024Z,6.00
2018-08-18T07:58:31.345Z,6.33
2018-08-18T08:01:00.981Z,3.30
2018-08-18T08:03:30.088Z,5.33
2018-08-18T08:05:59.203Z,4.73
2018-08-18T08:09:01.038Z,4.80
2018-08-18T08:11:30.232Z,5.63
2018-08-18T08:13:59.506Z,6.13
2018-08-18T08:16:28.724Z,5.20
2018-08-18T08:18:57.932Z,5.97
2018-08-18T08:21:27.192Z,4.57
2018-08-18T08:23:56.219Z,4.50
2018-08-18T08:26:25.590Z,7.60
2018-08-18T08:28:55.160Z,4.80
2018-08-18T08:31:24.719Z,6.90
2018-08-18T08:33:53.904Z,3.43
2018-08-18T08:36:23.259Z,4.57
2018-08-18T08:38:56.943Z,6.20
2018-08-18T08:41:27.615Z,8.27
2018-08-18T08:43:56.796Z,8.80
2018-08-18T08:46:25.994Z,6.83
2018-08-18T08:48:57.659Z,6.87
2018-08-18T08:51:27.167Z,5.60
2018-08-18T08:53:58.243Z,8.27
2018-08-18T08:56:34.638Z,6.87
2018-08-18T08:59:04.711Z,6.00
2018-08-18T09:01:34.723Z,7.07
2018-08-18T09:04:04.564Z,6.47
2018-08-18T09:06:35.199Z,4.73
2018-08-18T09:09:07.273Z,7.37
2018-08-18T09:11:36.879Z,7.20
2018-08-18T09:14:07.928Z,5.57
2018-08-18T09:16:37.210Z,7.57
2018-08-18T09:19:06.391Z,5.23
2018-08-18T09:21:43.758Z,6.00
2018-08-18T09:24:13.508Z,3.73
2018-08-18T09:26:48.142Z,8.23
2018-08-18T09:29:17.257Z,9.03
2018-08-18T09:31:46.892Z,6.40
2018-08-18T09:34:16.332Z,6.20
2018-08-18T09:36:46.506Z,5.63
2018-08-18T09:39:33.036Z,3.83
2018-08-18T09:42:05.103Z,5.87
2018-08-18T09:44:35.494Z,5.13
2018-08-18T09:47:05.177Z,4.73
2018-08-18T09:49:34.728Z,4.67
2018-08-18T09:52:04.581Z,5.97
2018-08-18T09:54:33.746Z,4.87
2018-08-18T09:57:02.991Z,5.73
2018-08-18T09:59:32.623Z,8.00
2018-08-18T10:02:01.880Z,7.77
2018-08-18T10:04:31.641Z,6.60
2018-08-18T10:07:02.832Z,5.93
2018-08-18T10:09:31.867Z,5.93
2018-08-18T10:12:01.498Z,5.00
2018-08-18T10:14:31.058Z,6.53
2018-08-18T10:17:00.312Z,7.67
2018-08-18T10:19:31.574Z,3.80
2018-08-18T10:22:01.155Z,7.03
2018-08-18T10:24:30.313Z,5.77
2018-08-18T10:27:04.461Z,9.23
2018-08-18T10:29:33.583Z,4.70
2018-08-18T10:32:03.187Z,4.83
2018-08-18T10:34:33.453Z,5.80
2018-08-18T10:37:03.885Z,5.53
2018-08-18T10:39:33.687Z,5.27
2018-08-18T10:42:12.378Z,6.83
2018-08-18T10:44:49.308Z,5.10
2018-08-18T10:47:19.786Z,6.80
2018-08-18T10:50:00.198Z,6.00
2018-08-18T10:52:41.257Z,5.73
2018-08-18T10:55:12.338Z,5.40
2018-08-18T10:57:53.525Z,4.60
2018-08-18T11:00:24.305Z,5.73
2018-08-18T11:02:57.572Z,7.17
2018-08-18T11:05:27.280Z,4.53
2018-08-18T11:08:00.259Z,5.60
2018-08-18T11:10:30.996Z,2.93
2018-08-18T11:13:00.489Z,4.97
2018-08-18T11:15:29.736Z,4.37
2018-08-18T11:17:59.426Z,6.37
2018-08-18T11:20:30.963Z,3.87
2018-08-18T11:23:04.964Z,5.63
2018-08-18T11:25:38.118Z,2.17
2018-08-18T11:28:08.725Z,4.37
2018-08-18T11:30:37.828Z,4.37
2018-08-18T11:33:07.151Z,2.60
2018-08-18T11:35:37.322Z,5.87
2018-08-18T11:38:13.921Z,6.50
2018-08-18T11:40:43.563Z,5.47
2018-08-18T11:43:14.327Z,4.33
2018-08-18T11:45:44.222Z,4.93
2018-08-18T11:48:20.014Z,7.30
2018-08-18T11:50:50.887Z,3.13
2018-08-18T11:53:20.749Z,3.40
2018-08-18T11:55:50.304Z,9.57
2018-08-18T11:58:20.803Z,4.77
2018-08-18T12:00:51.561Z,5.60
2018-08-18T12:03:24.269Z,5.53
2018-08-18T12:05:55.526Z,6.07
2018-08-18T12:08:25.926Z,3.50
2018-08-18T12:10:56.743Z,5.20
2018-08-18T12:13:31.704Z,3.90
2018-08-18T12:16:18.715Z,5.30
2018-08-18T12:18:48.752Z,4.73
2018-08-18T12:21:18.599Z,6.33
2018-08-18T12:23:48.776Z,3.77
2018-08-18T12:26:19.424Z,5.10
2018-08-18T12:28:50.230Z,5.57
2018-08-18T12:31:22.729Z,4.93
2018-08-18T12:33:52.389Z,6.27
2018-08-18T12:36:21.772Z,7.20
2018-08-18T12:38:53.672Z,6.37
2018-08-18T12:41:22.943Z,3.93
2018-08-18T12:43:54.427Z,6.87
2018-08-18T12:46:28.874Z,5.37
2018-08-18T12:48:58.458Z,6.80
2018-08-18T12:51:27.893Z,7.90
2018-08-18T12:53:58.003Z,4.10
2018-08-18T12:56:28.345Z,5.27
2018-08-18T12:58:57.678Z,6.17
2018-08-18T13:01:43.286Z,6.30
2018-08-18T13:04:14.141Z,5.17
2018-08-18T13:06:47.553Z,3.97
2018-08-18T13:09:19.198Z,5.77
2018-08-18T13:11:49.638Z,7.27
2018-08-18T13:14:21.195Z,7.67
2018-08-18T13:16:50.298Z,4.90
2018-08-18T13:19:21.440Z,5.97
2018-08-18T13:21:50.752Z,5.77
2018-08-18T13:24:20.224Z,6.60
2018-08-18T13:26:49.592Z,5.03
2018-08-18T13:29:19.078Z,4.63
2018-08-18T13:31:48.344Z,5.70
2018-08-18T13:34:19.000Z,7.63
2018-08-18T13:36:48.589Z,6.70
2018-08-18T13:39:18.886Z,6.93
2018-08-18T13:41:49.239Z,6.27
2018-08-18T13:44:25.282Z,5.50
2018-08-18T13:46:54.911Z,7.50
2018-08-18T13:49:25.506Z,4.03
2018-08-18T13:51:54.943Z,4.77
2018-08-18T13:54:24.175Z,3.90
2018-08-18T13:56:53.372Z,4.50
2018-08-18T13:59:44.970Z,4.40
2018-08-18T14:02:14.399Z,5.57
2018-08-18T14:04:44.287Z,4.67
2018-08-18T14:07:13.917Z,6.37
2018-08-18T14:09:45.028Z,12.10
2018-08-18T14:12:16.706Z,6.67
2018-08-18T14:14:46.772Z,5.70
2018-08-18T14:17:18.135Z,3.83
2018-08-18T14:19:47.624Z,4.00
2018-08-18T14:22:21.603Z,6.00
2018-08-18T14:24:50.812Z,5.30
2018-08-18T14:27:22.037Z,5.30
2018-08-18T14:29:51.357Z,7.73
2018-08-18T14:32:28.972Z,4.87
2018-08-18T14:35:07.583Z,4.63
2018-08-18T14:37:39.527Z,6.73
2018-08-18T14:40:11.609Z,6.30
2018-08-18T14:42:40.994Z,4.00
2018-08-18T14:45:14.399Z,8.03
2018-08-18T14:47:44.083Z,8.43
2018-08-18T14:50:27.600Z,5.53
2018-08-18T14:52:57.135Z,6.80
2018-08-18T14:55:26.537Z,6.53
2018-08-18T14:58:01.277Z,4.67
2018-08-18T15:00:31.357Z,6.77
2018-08-18T15:03:01.085Z,6.83
2018-08-18T15:05:30.858Z,4.77
2018-08-18T15:08:00.747Z,4.20
2018-08-18T15:10:43.475Z,6.40
2018-08-18T15:13:13.337Z,8.97
2018-08-18T15:15:43.207Z,5.37
2018-08-18T15:18:14.845Z,6.17
2018-08-18T15:20:45.223Z,6.73
2018-08-18T15:23:15.574Z,6.07
2018-08-18T15:25:46.258Z,5.30
2018-08-18T15:28:17.689Z,8.57
2018-08-18T15:30:49.519Z,7.03
2018-08-18T15:33:27.537Z,11.60
2018-08-18T15:35:57.817Z,4.87
2018-08-18T15:38:41.477Z,5.80
2018-08-18T15:41:11.634Z,5.90
2018-08-18T15:43:41.585Z,6.80
2018-08-18T15:46:10.931Z,10.67
2018-08-18T15:48:40.801Z,9.23
2018-08-18T15:51:10.326Z,7.93
2018-08-18T15:54:02.897Z,5.13
2018-08-18T15:56:33.567Z,9.37
2018-08-18T15:59:03.930Z,4.97
2018-08-18T16:01:34.670Z,6.27
2018-08-18T16:04:05.048Z,4.83
2018-08-18T16:06:34.738Z,6.27
2018-08-18T16:09:05.970Z,7.00
2018-08-18T16:11:35.834Z,7.60
2018-08-18T16:14:05.550Z,8.33
2018-08-18T16:16:49.164Z,10.43
2018-08-18T16:19:18.783Z,4.73
2018-08-18T16:21:48.356Z,6.13
2018-08-18T16:24:57.169Z,7.80
2018-08-18T16:27:27.067Z,7.07
2018-08-18T16:29:56.729Z,6.80
2018-08-18T16:32:27.492Z,8.07
2018-08-18T16:35:02.628Z,14.00
2018-08-18T16:37:34.751Z,13.63
2018-08-18T16:40:05.392Z,7.87
2018-08-18T16:42:35.189Z,6.43
2018-08-18T16:45:06.009Z,6.47
2018-08-18T16:47:45.977Z,9.47
2018-08-18T16:50:15.555Z,5.80
2018-08-18T16:52:45.131Z,6.57
2018-08-18T16:55:14.931Z,9.63
2018-08-18T16:57:45.253Z,9.70
2018-08-18T17:00:14.908Z,5.83
2018-08-18T17:02:44.698Z,5.53
2018-08-18T17:05:14.362Z,6.70
2018-08-18T17:07:44.481Z,9.40
2018-08-18T17:10:14.351Z,10.63
2018-08-18T17:12:43.887Z,8.37
2018-08-18T17:15:13.502Z,7.70
2018-08-18T17:17:43.033Z,13.70
2018-08-18T17:20:12.655Z,9.53
2018-08-18T17:22:43.684Z,13.73
2018-08-18T17:25:17.229Z,6.30
2018-08-18T17:27:46.707Z,12.83
2018-08-18T17:30:16.243Z,16.57
2018-08-18T17:32:45.725Z,12.73
2018-08-18T17:35:15.501Z,10.50
2018-08-18T17:37:45.311Z,12.10
2018-08-18T17:40:14.737Z,8.93
2018-08-18T17:42:44.347Z,8.73
2018-08-18T17:45:13.891Z,9.57
2018-08-18T17:47:49.612Z,9.60
2018-08-18T17:50:19.208Z,7.63
2018-08-18T17:52:48.795Z,10.23
2018-08-18T17:55:19.423Z,10.93
2018-08-18T17:57:48.991Z,6.13
2018-08-18T18:00:21.092Z,8.33
2018-08-18T18:02:57.067Z,9.60
2018-08-18T18:05:28.398Z,9.00
2018-08-18T18:08:00.313Z,10.27
2018-08-18T18:10:34.082Z,6.70
2018-08-18T18:13:14.001Z,7.50
2018-08-18T18:15:44.052Z,13.87
2018-08-18T18:18:16.589Z,5.60
2018-08-18T18:20:47.383Z,9.57
2018-08-18T18:23:17.709Z,9.97
2018-08-18T18:25:47.881Z,11.90
2018-08-18T18:28:17.641Z,9.73
2018-08-18T18:30:47.378Z,13.17
2018-08-18T18:33:17.283Z,10.57
2018-08-18T18:35:47.506Z,13.77
2018-08-18T18:38:17.016Z,7.87
2018-08-18T18:40:46.945Z,9.70
2018-08-18T18:43:16.510Z,9.77
2018-08-18T18:45:46.095Z,14.10
2018-08-18T18:48:16.347Z,8.00
2018-08-18T18:50:47.655Z,9.03
2018-08-18T18:53:17.224Z,12.37
2018-08-18T18:55:52.083Z,8.10
2018-08-18T18:58:21.630Z,11.57
2018-08-18T19:01:08.928Z,8.13
2018-08-18T19:03:38.352Z,9.53
2018-08-18T19:06:07.885Z,10.93
2018-08-18T19:08:51.501Z,9.67
2018-08-18T19:11:21.179Z,8.13
2018-08-18T19:13:50.846Z,10.33
2018-08-18T19:16:20.640Z,7.00
2018-08-18T19:18:50.239Z,9.93
2018-08-18T19:21:19.867Z,9.57
2018-08-18T19:23:50.090Z,14.47
2018-08-18T19:26:19.933Z,10.13
2018-08-18T19:28:49.752Z,16.07
2018-08-18T19:31:23.090Z,12.03
2018-08-18T19:33:58.765Z,11.00
2018-08-18T19:36:27.937Z,13.77
2018-08-18T19:38:57.095Z,9.50
2018-08-18T19:41:26.353Z,12.53
2018-08-18T19:43:55.524Z,10.33
2018-08-18T19:46:24.691Z,13.33
2018-08-18T19:48:53.854Z,15.17
2018-08-18T19:51:23.000Z,15.13
2018-08-18T19:53:53.176Z,12.57
2018-08-18T19:56:22.316Z,12.10
2018-08-18T19:58:51.776Z,8.07
2018-08-18T20:01:20.826Z,14.47
2018-08-18T20:03:50.234Z,11.90
2018-08-18T20:06:21.603Z,11.97
2018-08-18T20:08:51.033Z,11.63
2018-08-18T20:11:20.435Z,12.80
2018-08-18T20:13:49.545Z,8.57
2018-08-18T20:16:18.663Z,14.13
2018-08-18T20:18:47.811Z,9.10
2018-08-18T20:21:16.929Z,14.73
2018-08-18T20:23:46.206Z,14.07
2018-08-18T20:26:15.264Z,11.50
2018-08-18T20:28:44.369Z,11.20
2018-08-18T20:31:13.592Z,11.53
2018-08-18T20:33:42.910Z,12.60
2018-08-18T20:36:12.307Z,12.77
2018-08-18T20:38:44.939Z,10.57
2018-08-18T20:41:14.156Z,12.80
2018-08-18T20:43:46.703Z,15.60
2018-08-18T20:46:15.761Z,10.10
2018-08-18T20:48:44.915Z,11.57
2018-08-18T20:51:15.313Z,16.13
2018-08-18T20:53:44.531Z,13.63
2018-08-18T20:56:13.967Z,12.60
2018-08-18T20:58:43.319Z,14.97
2018-08-18T21:01:12.443Z,15.40
2018-08-18T21:03:48.936Z,11.73
2018-08-18T21:06:18.949Z,9.70
2018-08-18T21:08:48.329Z,13.40
2018-08-18T21:11:17.625Z,14.40
2018-08-18T21:13:49.376Z,13.90
2018-08-18T21:16:19.381Z,12.93
2018-08-18T21:18:48.760Z,12.73
2018-08-18T21:21:34.821Z,12.27
2018-08-18T21:24:04.460Z,11.23
2018-08-18T21:26:33.787Z,14.27
2018-08-18T21:29:02.823Z,14.00
2018-08-18T21:31:36.066Z,14.27
2018-08-18T21:34:06.760Z,13.83
2018-08-18T21:36:36.246Z,14.67
2018-08-18T21:39:08.518Z,12.30
2018-08-18T21:41:39.519Z,11.00
2018-08-18T21:44:10.804Z,12.90
2018-08-18T21:46:40.484Z,11.53
2018-08-18T21:49:10.192Z,10.70
2018-08-18T21:51:39.525Z,11.73
2018-08-18T21:54:08.766Z,12.57
2018-08-18T21:56:40.310Z,15.27
2018-08-18T21:59:10.840Z,15.73
2018-08-18T22:01:40.142Z,12.73
2018-08-18T22:04:09.663Z,9.13
2018-08-18T22:06:38.807Z,13.43
2018-08-18T22:09:20.558Z,9.57
2018-08-18T22:11:49.822Z,13.83
2018-08-18T22:14:19.245Z,12.73
2018-08-18T22:16:54.729Z,10.63
2018-08-18T22:19:23.972Z,14.17
2018-08-18T22:21:53.051Z,14.83
2018-08-18T22:24:22.270Z,11.70
2018-08-18T22:26:51.401Z,13.37
2018-08-18T22:29:24.970Z,15.97
2018-08-18T22:31:54.534Z,13.17
2018-08-18T22:34:24.400Z,9.17
2018-08-18T22:37:01.309Z,13.57
2018-08-18T22:39:30.784Z,14.53
2018-08-18T22:42:00.100Z,12.73
2018-08-18T22:44:29.672Z,13.77
2018-08-18T22:46:58.984Z,17.40
2018-08-18T22:49:28.364Z,12.53
2018-08-18T22:51:57.481Z,14.70
2018-08-18T22:54:26.838Z,12.57
2018-08-18T22:57:01.874Z,15.27
2018-08-18T22:59:31.293Z,11.70
2018-08-18T23:02:00.513Z,12.10
2018-08-18T23:04:31.596Z,15.03
2018-08-18T23:07:01.817Z,15.00
2018-08-18T23:09:31.456Z,14.40
2018-08-18T23:12:03.430Z,15.93
2018-08-18T23:14:35.905Z,14.33
2018-08-18T23:17:05.696Z,13.33
2018-08-18T23:19:34.761Z,10.17
2018-08-18T23:22:03.999Z,13.60
2018-08-18T23:24:37.484Z,12.70
2018-08-18T23:27:06.737Z,12.93
2018-08-18T23:29:35.930Z,14.03
2018-08-18T23:32:11.745Z,12.60
2018-08-18T23:34:41.037Z,17.43
2018-08-18T23:37:15.689Z,11.17
2018-08-18T23:39:44.728Z,14.07
2018-08-18T23:42:16.807Z,17.53
2018-08-18T23:44:46.435Z,13.30
2018-08-18T23:47:15.550Z,14.20
2018-08-18T23:49:44.724Z,14.40
2018-08-18T23:52:13.849Z,17.37
2018-08-18T23:54:42.981Z,11.83
2018-08-18T23:57:12.643Z,12.43
2018-08-18T23:59:41.752Z,10.17
